createdAt,value
2019-05-25T00:01:59.640Z,8.95
2019-05-25T00:04:29.648Z,10.10
2019-05-25T00:06:59.469Z,10.43
2019-05-25T00:09:30.384Z,10.58
2019-05-25T00:12:00.350Z,10.53
2019-05-25T00:14:30.518Z,11.43
2019-05-25T00:17:00.355Z,10.93
2019-05-25T00:19:30.270Z,10.70
2019-05-25T00:22:01.403Z,11.78
2019-05-25T00:24:31.239Z,11.20
2019-05-25T00:27:01.130Z,11.75
2019-05-25T00:29:32.553Z,11.97
2019-05-25T00:32:02.440Z,11.73
2019-05-25T00:34:32.264Z,11.65
2019-05-25T00:37:02.316Z,12.73
2019-05-25T00:39:33.745Z,11.55
2019-05-25T00:42:03.630Z,11.55
2019-05-25T00:44:35.202Z,12.78
2019-05-25T00:47:05.862Z,13.35
2019-05-25T00:49:35.723Z,13.62
2019-05-25T00:52:05.582Z,12.85
2019-05-25T00:54:35.566Z,13.62
2019-05-25T00:57:05.333Z,12.25
2019-05-25T00:59:35.899Z,12.90
2019-05-25T01:02:05.829Z,13.95
2019-05-25T01:04:35.664Z,13.58
2019-05-25T01:07:05.551Z,14.63
2019-05-25T01:09:35.323Z,14.68
2019-05-25T01:12:05.488Z,13.58
2019-05-25T01:14:35.458Z,13.88
2019-05-25T01:17:05.329Z,14.93
2019-05-25T01:19:35.294Z,13.50
2019-05-25T01:22:05.202Z,14.58
2019-05-25T01:24:43.957Z,15.43
2019-05-25T01:27:06.904Z,14.05
2019-05-25T01:29:36.696Z,15.43
2019-05-25T01:32:06.524Z,13.80
2019-05-25T01:34:36.373Z,15.00
2019-05-25T01:37:06.440Z,16.57
2019-05-25T01:39:36.339Z,17.00
2019-05-25T01:42:06.179Z,16.40
2019-05-25T01:44:36.225Z,17.07
2019-05-25T01:47:06.211Z,16.37
2019-05-25T01:49:36.166Z,17.20
2019-05-25T01:52:06.317Z,16.95
2019-05-25T01:54:39.263Z,16.32
2019-05-25T01:57:09.284Z,16.00
2019-05-25T01:59:40.740Z,16.57
2019-05-25T02:02:10.774Z,17.35
2019-05-25T02:04:43.338Z,17.37
2019-05-25T02:07:13.987Z,17.65
2019-05-25T02:09:44.496Z,17.17
2019-05-25T02:12:14.408Z,18.32
2019-05-25T02:14:45.961Z,17.15
2019-05-25T02:17:16.630Z,16.60
2019-05-25T02:19:48.972Z,16.67
2019-05-25T02:22:19.081Z,16.48
2019-05-25T02:24:51.633Z,18.25
2019-05-25T02:27:21.476Z,15.88
2019-05-25T02:29:52.820Z,16.15
2019-05-25T02:32:22.767Z,17.67
2019-05-25T02:34:52.608Z,17.77
2019-05-25T02:37:22.645Z,17.32
2019-05-25T02:39:53.325Z,17.52
2019-05-25T02:42:23.262Z,16.32
2019-05-25T02:44:59.939Z,17.70
2019-05-25T02:47:29.835Z,17.07
2019-05-25T02:50:01.162Z,16.27
2019-05-25T02:52:32.704Z,17.45
2019-05-25T02:55:02.674Z,17.30
2019-05-25T02:57:32.555Z,17.90
2019-05-25T03:00:02.468Z,18.12
2019-05-25T03:02:33.924Z,16.70
2019-05-25T03:05:07.405Z,18.57
2019-05-25T03:07:40.357Z,17.20
2019-05-25T03:10:10.596Z,20.40
2019-05-25T03:12:41.731Z,18.85
2019-05-25T03:15:11.906Z,17.42
2019-05-25T03:17:41.842Z,18.42
2019-05-25T03:20:12.076Z,18.42
2019-05-25T03:22:48.292Z,17.98
2019-05-25T03:25:18.561Z,17.23
2019-05-25T03:27:49.319Z,17.50
2019-05-25T03:30:32.611Z,17.35
2019-05-25T03:33:02.672Z,17.30
2019-05-25T03:35:33.795Z,18.40
2019-05-25T03:38:05.310Z,18.37
2019-05-25T03:40:38.689Z,17.48
2019-05-25T03:43:09.205Z,19.25
2019-05-25T03:45:42.516Z,18.07
2019-05-25T03:48:17.813Z,17.77
2019-05-25T03:50:48.351Z,17.27
2019-05-25T03:53:21.226Z,16.65
2019-05-25T03:56:04.813Z,19.50
2019-05-25T03:58:24.838Z,19.57
2019-05-25T04:00:56.903Z,18.67
2019-05-25T04:03:28.787Z,18.32
2019-05-25T04:06:00.266Z,19.95
2019-05-25T04:08:31.063Z,20.32
2019-05-25T04:11:00.993Z,19.60
2019-05-25T04:13:40.285Z,19.25
2019-05-25T04:16:10.297Z,20.35
2019-05-25T04:18:42.726Z,20.10
2019-05-25T04:21:13.924Z,21.73
2019-05-25T04:23:44.865Z,20.20
2019-05-25T04:26:22.656Z,19.90
2019-05-25T04:28:51.087Z,19.95
2019-05-25T04:31:22.959Z,20.08
2019-05-25T04:33:57.447Z,19.15
2019-05-25T04:36:28.735Z,20.27
2019-05-25T04:39:00.518Z,20.52
2019-05-25T04:41:31.352Z,21.82
2019-05-25T04:44:01.292Z,23.57
2019-05-25T04:46:31.219Z,22.42
2019-05-25T04:49:02.648Z,21.65
2019-05-25T04:51:35.754Z,22.15
2019-05-25T04:54:05.781Z,21.77
2019-05-25T04:56:39.908Z,23.25
2019-05-25T04:59:10.032Z,21.37
2019-05-25T05:01:41.281Z,22.30
2019-05-25T05:04:15.203Z,22.50
2019-05-25T05:06:49.832Z,22.40
2019-05-25T05:09:20.325Z,24.55
2019-05-25T05:12:05.886Z,23.80
2019-05-25T05:14:43.241Z,23.07
2019-05-25T05:17:33.913Z,23.52
2019-05-25T05:20:09.016Z,22.32
2019-05-25T05:25:46.554Z,20.00
2019-05-25T05:28:21.450Z,20.80
2019-05-25T05:33:49.905Z,19.12
2019-05-25T05:36:24.157Z,19.17
2019-05-25T05:39:03.470Z,17.15
2019-05-25T05:41:52.351Z,18.45
2019-05-25T05:44:45.129Z,15.70
2019-05-25T05:47:31.518Z,15.20
2019-05-25T05:50:26.957Z,15.50
2019-05-25T05:53:12.850Z,14.68
2019-05-25T06:29:31.926Z,14.13
2019-05-25T06:54:06.639Z,13.70
2019-05-25T07:32:58.661Z,9.48
2019-05-25T07:35:52.802Z,10.70
2019-05-25T07:38:30.956Z,10.82
2019-05-25T07:41:13.247Z,10.68
2019-05-25T07:43:48.840Z,11.22
2019-05-25T07:46:33.477Z,10.63
2019-05-25T07:52:07.553Z,12.30
2019-05-25T07:55:09.305Z,12.03
2019-05-25T08:01:09.062Z,11.88
2019-05-25T08:03:39.646Z,11.33
2019-05-25T08:06:12.298Z,12.45
2019-05-25T08:17:48.450Z,11.15
2019-05-25T08:20:25.141Z,10.98
2019-05-25T08:38:10.844Z,9.58
2019-05-25T08:40:52.667Z,9.13
2019-05-25T08:49:34.679Z,8.38
2019-05-25T08:55:10.801Z,7.53
2019-05-25T09:23:54.145Z,10.85
2019-05-25T09:30:01.151Z,10.03
2019-05-25T09:35:48.225Z,9.60
2019-05-25T09:38:23.581Z,9.70
2019-05-25T09:41:00.836Z,9.00
2019-05-25T09:46:37.105Z,9.90
2019-05-25T09:49:09.447Z,9.25
2019-05-25T09:51:44.045Z,9.48
2019-05-25T09:54:31.703Z,8.80
2019-05-25T10:13:45.689Z,8.90
2019-05-25T10:16:54.011Z,8.25
2019-05-25T10:22:25.971Z,6.22
2019-05-25T10:31:13.438Z,6.30
2019-05-25T10:33:51.052Z,6.53
2019-05-25T10:36:42.846Z,6.15
2019-05-25T10:39:25.515Z,6.70
2019-05-25T10:42:43.388Z,6.75
2019-05-25T10:45:17.463Z,5.30
2019-05-25T10:47:51.227Z,6.08
2019-05-25T10:57:19.974Z,6.22
2019-05-25T10:59:58.931Z,6.60
2019-05-25T11:02:36.662Z,6.60
2019-05-25T11:05:12.072Z,6.20
2019-05-25T11:07:48.699Z,5.80
2019-05-25T11:10:24.056Z,6.03
2019-05-25T11:13:01.736Z,6.17
2019-05-25T11:15:35.326Z,5.83
2019-05-25T11:18:05.172Z,5.08
2019-05-25T11:23:42.997Z,5.80
2019-05-25T11:26:14.141Z,5.00
2019-05-25T11:28:44.059Z,5.53
2019-05-25T11:31:20.903Z,5.10
2019-05-25T11:34:05.335Z,5.22
2019-05-25T11:36:38.660Z,5.12
2019-05-25T11:39:10.203Z,6.03
2019-05-25T11:41:40.219Z,4.90
2019-05-25T11:44:22.546Z,4.95
2019-05-25T11:46:54.386Z,5.60
2019-05-25T11:49:26.440Z,5.70
2019-05-25T11:52:00.045Z,4.70
2019-05-25T11:54:37.457Z,5.80
2019-05-25T11:57:17.315Z,5.95
2019-05-25T11:59:49.325Z,5.78
2019-05-25T12:02:25.113Z,5.80
2019-05-25T12:04:57.546Z,5.45
2019-05-25T12:07:35.402Z,5.70
2019-05-25T12:10:10.125Z,5.87
2019-05-25T12:15:40.193Z,4.90
2019-05-25T12:18:17.368Z,5.20
2019-05-25T12:20:50.985Z,4.80
2019-05-25T12:23:23.899Z,4.10
2019-05-25T12:25:58.520Z,4.72
2019-05-25T12:28:53.756Z,4.97
2019-05-25T12:31:27.036Z,4.20
2019-05-25T12:33:57.125Z,4.87
2019-05-25T12:36:50.769Z,5.30
2019-05-25T12:39:26.437Z,5.03
2019-05-25T12:41:58.097Z,4.83
2019-05-25T12:44:29.002Z,4.47
2019-05-25T12:47:01.653Z,5.58
2019-05-25T12:49:48.495Z,5.50
2019-05-25T12:52:03.054Z,5.70
2019-05-25T12:54:34.393Z,6.45
2019-05-25T12:57:05.839Z,5.80
2019-05-25T12:59:38.441Z,6.45
2019-05-25T13:02:11.252Z,6.25
2019-05-25T13:04:50.087Z,6.17
2019-05-25T13:07:21.806Z,5.47
2019-05-25T13:10:20.785Z,5.10
2019-05-25T13:13:02.381Z,4.72
2019-05-25T13:15:39.813Z,5.35
2019-05-25T13:18:23.216Z,5.83
2019-05-25T13:23:59.296Z,5.03
2019-05-25T13:26:32.986Z,5.60
2019-05-25T13:29:08.754Z,5.40
2019-05-25T13:31:36.120Z,6.28
2019-05-25T13:34:08.667Z,5.50
2019-05-25T13:36:39.220Z,5.95
2019-05-25T13:39:11.576Z,5.85
2019-05-25T13:41:42.629Z,7.08
2019-05-25T13:44:13.406Z,6.58
2019-05-25T13:46:43.358Z,6.35
2019-05-25T13:49:13.778Z,6.50
2019-05-25T13:51:43.678Z,6.70
2019-05-25T13:54:16.130Z,7.37
2019-05-25T13:56:46.136Z,8.43
2019-05-25T13:59:17.914Z,8.15
2019-05-25T14:01:47.753Z,7.97
2019-05-25T14:04:18.298Z,8.15
2019-05-25T14:06:51.467Z,8.03
2019-05-25T14:09:22.516Z,9.15
2019-05-25T14:11:52.409Z,8.18
2019-05-25T14:14:24.376Z,8.10
2019-05-25T14:16:54.056Z,8.40
2019-05-25T14:19:24.120Z,8.75
2019-05-25T14:22:18.531Z,8.88
2019-05-25T14:24:49.107Z,8.68
2019-05-25T14:27:20.317Z,8.93
2019-05-25T14:29:54.282Z,8.03
2019-05-25T14:32:25.113Z,8.53
2019-05-25T14:34:55.904Z,9.63
2019-05-25T14:37:26.192Z,6.05
2019-05-25T14:39:59.365Z,7.47
2019-05-25T14:42:29.288Z,7.12
2019-05-25T14:45:03.822Z,6.40
2019-05-25T14:47:37.637Z,6.28
2019-05-25T14:50:10.013Z,8.03
2019-05-25T14:52:43.204Z,7.03
2019-05-25T14:55:14.110Z,6.62
2019-05-25T14:57:46.991Z,7.20
2019-05-25T15:00:18.320Z,7.50
2019-05-25T15:02:49.228Z,6.42
2019-05-25T15:05:24.155Z,6.40
2019-05-25T15:17:09.685Z,6.08
2019-05-25T15:19:41.873Z,4.65
2019-05-25T15:25:20.518Z,4.00
2019-05-25T15:31:01.137Z,2.45
2019-05-25T15:33:54.378Z,1.95
2019-05-25T15:52:10.720Z,3.70
2019-05-25T16:10:32.233Z,4.45
2019-05-25T16:34:57.048Z,4.08
2019-05-25T16:37:30.149Z,4.47
2019-05-25T16:40:01.557Z,4.30
2019-05-25T16:42:44.437Z,4.45
2019-05-25T16:45:17.866Z,3.87
2019-05-25T16:47:57.045Z,3.80
2019-05-25T17:14:44.165Z,7.28
2019-05-25T17:26:55.223Z,7.83
2019-05-25T17:35:40.329Z,8.78
2019-05-25T17:44:28.121Z,8.08
2019-05-25T17:55:15.460Z,7.55
2019-05-25T18:01:02.427Z,8.85
2019-05-25T18:04:06.679Z,10.80
2019-05-25T18:06:41.227Z,10.45
2019-05-25T18:12:27.542Z,10.78
2019-05-25T18:26:49.222Z,14.85
2019-05-25T18:29:23.636Z,14.73
2019-05-25T18:31:59.629Z,14.58
2019-05-25T18:34:45.462Z,15.23
2019-05-25T18:37:22.426Z,14.07
2019-05-25T18:39:57.677Z,14.15
2019-05-25T18:42:30.853Z,14.20
2019-05-25T18:45:09.369Z,14.00
2019-05-25T18:47:39.917Z,14.10
2019-05-25T18:50:16.120Z,14.65
2019-05-25T18:52:48.056Z,14.15
2019-05-25T18:55:22.989Z,14.13
2019-05-25T18:57:56.104Z,15.38
2019-05-25T19:00:27.991Z,15.90
2019-05-25T19:03:00.386Z,15.13
2019-05-25T19:05:32.769Z,17.82
2019-05-25T19:08:03.415Z,16.48
2019-05-25T19:10:33.432Z,16.02
2019-05-25T19:13:04.395Z,16.97
2019-05-25T19:15:34.830Z,16.30
2019-05-25T19:18:04.864Z,15.68
2019-05-25T19:20:36.826Z,17.85
2019-05-25T19:23:11.486Z,18.92
2019-05-25T19:25:41.977Z,17.05
2019-05-25T19:28:13.069Z,18.35
2019-05-25T19:30:42.987Z,19.20
2019-05-25T19:33:16.891Z,17.92
2019-05-25T19:35:48.409Z,17.35
2019-05-25T19:38:18.347Z,20.23
2019-05-25T19:40:51.468Z,19.32
2019-05-25T19:43:23.948Z,17.85
2019-05-25T19:45:56.089Z,21.93
2019-05-25T19:48:27.506Z,20.82
2019-05-25T19:50:57.457Z,20.75
2019-05-25T19:53:28.972Z,19.23
2019-05-25T19:56:01.103Z,19.92
2019-05-25T19:58:33.725Z,20.52
2019-05-25T20:01:06.509Z,19.00
2019-05-25T20:03:38.462Z,19.23
2019-05-25T20:06:09.921Z,20.15
2019-05-25T20:08:42.669Z,19.42
2019-05-25T20:11:13.465Z,19.70
2019-05-25T20:13:46.868Z,19.40
2019-05-25T20:16:17.769Z,19.67
2019-05-25T20:18:48.856Z,18.35
2019-05-25T20:21:21.058Z,20.88
2019-05-25T20:23:52.738Z,20.40
2019-05-25T20:26:23.291Z,20.68
2019-05-25T20:28:53.605Z,21.42
2019-05-25T20:31:24.204Z,20.50
2019-05-25T20:33:55.171Z,21.82
2019-05-25T20:36:25.111Z,20.05
2019-05-25T20:38:55.076Z,22.52
2019-05-25T20:41:25.095Z,20.27
2019-05-25T20:43:56.243Z,23.50
2019-05-25T20:46:28.096Z,23.83
2019-05-25T20:48:58.117Z,23.10
2019-05-25T20:51:28.756Z,23.45
2019-05-25T20:54:01.375Z,25.75
2019-05-25T20:56:31.683Z,25.37
2019-05-25T20:59:01.575Z,25.68
2019-05-25T21:01:32.589Z,27.55
2019-05-25T21:04:05.767Z,26.17
2019-05-25T21:06:36.314Z,27.02
2019-05-25T21:09:09.236Z,27.50
2019-05-25T21:11:39.047Z,27.95
2019-05-25T21:14:09.858Z,27.40
2019-05-25T21:16:41.727Z,26.73
2019-05-25T21:19:11.711Z,27.32
2019-05-25T21:21:41.639Z,27.52
2019-05-25T21:24:11.632Z,27.70
2019-05-25T21:26:44.694Z,28.20
2019-05-25T21:29:15.380Z,28.12
2019-05-25T21:31:45.293Z,28.23
2019-05-25T21:34:15.297Z,28.23
2019-05-25T21:36:45.758Z,28.00
2019-05-25T21:39:16.122Z,27.50
2019-05-25T21:41:46.123Z,27.77
2019-05-25T21:44:18.668Z,27.85
2019-05-25T21:46:49.276Z,29.45
2019-05-25T21:49:19.651Z,29.32
2019-05-25T21:51:50.398Z,29.67
2019-05-25T21:54:21.207Z,29.40
2019-05-25T21:56:51.809Z,30.23
2019-05-25T21:59:22.355Z,30.82
2019-05-25T22:01:52.368Z,29.72
2019-05-25T22:04:25.113Z,32.05
2019-05-25T22:06:57.330Z,29.10
2019-05-25T22:09:27.226Z,29.23
2019-05-25T22:12:00.009Z,30.32
2019-05-25T22:14:30.870Z,30.10
2019-05-25T22:17:01.352Z,28.23
2019-05-25T22:19:32.473Z,28.87
2019-05-25T22:22:03.370Z,29.30
2019-05-25T22:24:33.323Z,32.42
2019-05-25T22:27:07.028Z,32.30
2019-05-25T22:29:38.078Z,31.15
2019-05-25T22:32:08.601Z,29.05
2019-05-25T22:34:39.610Z,27.73
2019-05-25T22:37:10.429Z,29.85
2019-05-25T22:39:41.414Z,28.57
2019-05-25T22:42:11.451Z,27.13
2019-05-25T22:44:42.198Z,28.07
2019-05-25T22:47:12.967Z,29.67
2019-05-25T22:49:46.085Z,30.50
2019-05-25T22:52:16.549Z,29.85
2019-05-25T22:54:54.122Z,30.48
2019-05-25T22:57:27.217Z,30.50
2019-05-25T22:59:57.168Z,30.70
2019-05-25T23:02:28.527Z,31.40
2019-05-25T23:05:06.842Z,31.68
2019-05-25T23:07:35.877Z,32.90
2019-05-25T23:10:08.819Z,32.78
2019-05-25T23:12:39.371Z,33.13
2019-05-25T23:15:09.928Z,32.58
2019-05-25T23:17:40.238Z,31.57
2019-05-25T23:20:11.219Z,31.77
2019-05-25T23:22:44.645Z,33.90
2019-05-25T23:25:19.361Z,34.92
2019-05-25T23:27:49.303Z,32.67
2019-05-25T23:30:22.152Z,33.08
2019-05-25T23:32:52.958Z,32.80
2019-05-25T23:35:24.408Z,34.13
2019-05-25T23:37:55.832Z,34.60
2019-05-25T23:40:38.873Z,35.65
2019-05-25T23:43:11.242Z,35.60
2019-05-25T23:45:44.578Z,38.15
2019-05-25T23:48:14.993Z,36.75
2019-05-25T23:50:46.389Z,35.95
2019-05-25T23:53:19.990Z,36.00
2019-05-25T23:55:51.678Z,36.20
2019-05-25T23:58:22.568Z,37.90
